Time;durP1;ratioP1;P1;durP2;ratioP2;P2;SDS_P1;SDS_P2;PMS_P1;PMS_P2;Temp;Humidity;BMP_temperature;BMP_pressure;BME280_temperature;BME280_humidity;BME280_pressure;Samples;Min_cycle;Max_cycle;Signal;HPM_P1;HPM_P2
2021/05/13 00:00:40;;;;;;;2.40;1.05;;;13.50;99.90;;;;;;4414505;32;20058;-72
2021/05/13 00:03:05;;;;;;;0.40;0.40;;;13.40;99.90;;;;;;4414328;32;20491;-74
2021/05/13 00:05:31;;;;;;;0.40;0.40;;;13.50;99.90;;;;;;4414867;32;20209;-73
2021/05/13 00:07:56;;;;;;;2.70;1.42;;;13.50;99.90;;;;;;4415014;32;20069;-73
2021/05/13 00:10:24;;;;;;;0.40;0.40;;;13.50;99.90;;;;;;4415638;32;20066;-73
2021/05/13 00:12:55;;;;;;;16.87;0.80;;;13.50;99.90;;;;;;4426357;32;20424;-73
2021/05/13 00:15:25;;;;;;;0.55;0.55;;;13.40;99.90;;;;;;4429997;32;20533;-73
2021/05/13 00:17:51;;;;;;;1.55;0.85;;;13.40;99.90;;;;;;4428804;32;20081;-73
2021/05/13 00:20:23;;;;;;;5.18;0.50;;;13.40;99.90;;;;;;4429617;32;20061;-73
2021/05/13 00:22:49;;;;;;;0.43;0.43;;;13.40;99.90;;;;;;4430494;32;20126;-73
2021/05/13 00:25:15;;;;;;;0.50;0.50;;;13.40;99.90;;;;;;4429809;32;20058;-73
2021/05/13 00:27:40;;;;;;;0.70;0.70;;;13.30;99.90;;;;;;4430195;32;20081;-73
2021/05/13 00:30:07;;;;;;;5.15;2.10;;;13.30;99.90;;;;;;4428658;32;20169;-73
2021/05/13 00:32:36;;;;;;;4.35;1.05;;;13.30;99.90;;;;;;4429383;32;20064;-73
2021/05/13 00:35:02;;;;;;;0.40;0.40;;;13.30;99.90;;;;;;4429454;32;20070;-73
2021/05/13 00:37:28;;;;;;;0.50;0.50;;;13.40;99.90;;;;;;4428917;32;20132;-73
2021/05/13 00:39:53;;;;;;;0.40;0.40;;;13.40;99.90;;;;;;4430059;32;20077;-73
2021/05/13 00:42:19;;;;;;;0.45;0.45;;;13.40;99.90;;;;;;4429439;32;20069;-73
2021/05/13 00:44:45;;;;;;;0.90;0.57;;;13.30;99.90;;;;;;4429172;32;20515;-73
2021/05/13 00:47:12;;;;;;;2.62;0.68;;;13.40;99.90;;;;;;4428962;32;20543;-73
2021/05/13 00:49:39;;;;;;;1.30;0.65;;;13.40;99.90;;;;;;4429784;32;20069;-73
2021/05/13 00:52:08;;;;;;;0.40;0.40;;;13.30;99.90;;;;;;4429643;32;20198;-73
2021/05/13 00:54:33;;;;;;;3.17;1.05;;;13.30;99.90;;;;;;4429201;32;20061;-73
2021/05/13 00:56:59;;;;;;;10.60;0.40;;;13.20;99.90;;;;;;4430290;32;20069;-73
2021/05/13 00:59:26;;;;;;;5.80;0.80;;;13.20;99.90;;;;;;4429446;32;20095;-73
2021/05/13 01:01:52;;;;;;;0.62;0.62;;;13.20;99.90;;;;;;4429864;32;20089;-73
2021/05/13 01:04:20;;;;;;;4.32;0.95;;;13.10;99.90;;;;;;4429428;32;20448;-73
2021/05/13 01:06:46;;;;;;;1.23;0.52;;;13.00;99.90;;;;;;4428786;32;20135;-73
2021/05/13 01:09:19;;;;;;;0.65;0.65;;;13.10;99.90;;;;;;4428949;32;20057;-73
2021/05/13 01:11:44;;;;;;;0.57;0.57;;;13.10;99.90;;;;;;4423517;32;20527;-73
2021/05/13 01:17:02;;;;;;;0.50;0.50;;;13.10;99.90;;;;;;4413541;32;20519;-73
2021/05/13 01:19:28;;;;;;;0.40;0.40;;;13.10;99.90;;;;;;4413206;32;20050;-73
2021/05/13 01:21:54;;;;;;;0.52;0.52;;;13.20;99.90;;;;;;4414217;32;20065;-73
2021/05/13 01:24:19;;;;;;;0.35;0.35;;;13.10;99.90;;;;;;4413513;32;20550;-73
2021/05/13 01:26:47;;;;;;;0.20;0.20;;;13.10;99.90;;;;;;4414081;32;20094;-73
2021/05/13 01:29:16;;;;;;;0.37;0.37;;;13.10;99.90;;;;;;4413531;32;20078;-73
2021/05/13 01:31:41;;;;;;;18.98;0.68;;;13.00;99.90;;;;;;4413734;32;20073;-73
2021/05/13 01:34:07;;;;;;;0.40;0.40;;;13.00;99.90;;;;;;4413162;32;20372;-73
2021/05/13 01:36:34;;;;;;;2.05;0.70;;;13.00;99.90;;;;;;4414654;32;20054;-73
2021/05/13 01:39:01;;;;;;;0.40;0.40;;;13.00;99.90;;;;;;4413798;32;20062;-73
2021/05/13 01:41:27;;;;;;;1.48;0.55;;;13.00;99.90;;;;;;4413432;32;20162;-73
2021/05/13 01:43:53;;;;;;;1.12;0.75;;;12.90;99.90;;;;;;4415738;32;20405;-73
2021/05/13 01:46:18;;;;;;;3.70;1.50;;;12.90;99.90;;;;;;4414365;32;20090;-73
2021/05/13 01:48:44;;;;;;;0.52;0.52;;;12.90;99.90;;;;;;4412662;32;20065;-73
2021/05/13 01:51:10;;;;;;;0.40;0.40;;;12.90;99.90;;;;;;4413483;32;20455;-73
2021/05/13 01:53:39;;;;;;;0.40;0.40;;;13.00;99.90;;;;;;4418487;32;20073;-73
2021/05/13 01:56:06;;;;;;;0.37;0.37;;;12.90;99.90;;;;;;4430370;32;20455;-73
2021/05/13 01:58:31;;;;;;;0.70;0.70;;;12.90;99.90;;;;;;4429010;32;20069;-73
2021/05/13 02:00:57;;;;;;;0.40;0.40;;;13.00;99.90;;;;;;4429043;32;20138;-73
2021/05/13 02:03:22;;;;;;;0.90;0.88;;;13.00;99.90;;;;;;4428747;32;20058;-73
2021/05/13 02:05:48;;;;;;;3.50;0.57;;;13.00;99.90;;;;;;4428770;32;20116;-73
2021/05/13 02:08:13;;;;;;;0.40;0.40;;;12.90;99.90;;;;;;4428098;32;20057;-73
2021/05/13 02:10:39;;;;;;;0.50;0.50;;;12.90;99.90;;;;;;4428116;32;20124;-73
2021/05/13 02:13:04;;;;;;;0.50;0.50;;;12.90;99.90;;;;;;4414989;32;20113;-73
2021/05/13 02:15:30;;;;;;;1.25;0.60;;;12.90;99.90;;;;;;4414576;32;20135;-73
2021/05/13 02:17:55;;;;;;;5.95;1.45;;;12.90;99.90;;;;;;4412817;32;20073;-73
2021/05/13 02:20:23;;;;;;;0.43;0.43;;;12.80;99.90;;;;;;4412765;32;20058;-73
2021/05/13 02:22:48;;;;;;;2.05;0.68;;;12.70;99.90;;;;;;4413692;32;20082;-73
2021/05/13 02:25:14;;;;;;;0.32;0.32;;;12.70;99.90;;;;;;4413184;32;20070;-73
2021/05/13 02:27:40;;;;;;;0.30;0.30;;;12.70;99.90;;;;;;4413165;32;20062;-73
2021/05/13 02:30:07;;;;;;;0.20;0.20;;;12.60;99.90;;;;;;4413336;32;20112;-74
2021/05/13 02:32:33;;;;;;;0.57;0.55;;;12.50;99.90;;;;;;4414008;32;20058;-74
2021/05/13 02:34:58;;;;;;;2.03;0.60;;;12.60;99.90;;;;;;4413308;32;20070;-74
2021/05/13 02:37:24;;;;;;;1.30;0.60;;;12.70;99.90;;;;;;4412826;32;20066;-74
2021/05/13 02:39:50;;;;;;;0.62;0.62;;;12.70;99.90;;;;;;4413156;32;20073;-74
2021/05/13 02:42:17;;;;;;;0.40;0.40;;;12.70;99.90;;;;;;4412850;32;20074;-73
2021/05/13 02:44:44;;;;;;;4.30;0.95;;;12.60;99.90;;;;;;4412271;32;20078;-74
2021/05/13 02:47:10;;;;;;;2.20;0.80;;;12.70;99.90;;;;;;4412924;32;20058;-74
2021/05/13 02:49:36;;;;;;;0.37;0.37;;;12.70;99.90;;;;;;4414241;32;20069;-74
2021/05/13 02:52:03;;;;;;;0.47;0.47;;;12.70;99.90;;;;;;4415609;32;20121;-74
2021/05/13 02:54:29;;;;;;;1.92;1.02;;;12.70;99.90;;;;;;4426966;32;20065;-74
2021/05/13 02:56:54;;;;;;;0.68;0.68;;;12.60;99.90;;;;;;4432105;32;20530;-74
2021/05/13 02:59:20;;;;;;;0.40;0.40;;;12.60;99.90;;;;;;4431660;32;20123;-74
2021/05/13 03:01:46;;;;;;;1.00;0.50;;;12.70;99.90;;;;;;4431363;32;20066;-74
2021/05/13 03:04:12;;;;;;;0.40;0.40;;;12.70;99.90;;;;;;4431618;32;20057;-74
2021/05/13 03:06:38;;;;;;;0.85;0.57;;;12.70;99.90;;;;;;4430370;32;20078;-74
2021/05/13 03:09:05;;;;;;;1.45;0.62;;;12.70;99.90;;;;;;4430703;32;20081;-73
2021/05/13 03:11:31;;;;;;;1.05;0.62;;;12.60;99.90;;;;;;4427229;32;20158;-74
2021/05/13 03:13:58;;;;;;;0.57;0.57;;;12.70;99.90;;;;;;4415533;32;20066;-74
2021/05/13 03:16:24;;;;;;;1.15;0.47;;;12.70;99.90;;;;;;4415058;32;20074;-74
2021/05/13 03:18:51;;;;;;;0.77;0.77;;;12.70;99.90;;;;;;4415665;32;20058;-74
2021/05/13 03:21:30;;;;;;;0.30;0.30;;;12.60;99.90;;;;;;4416008;32;20054;-74
2021/05/13 03:24:20;;;;;;;3.12;0.60;;;12.60;99.90;;;;;;4416073;32;20078;-74
2021/05/13 03:29:17;;;;;;;0.73;0.43;;;12.80;99.90;;;;;;4414981;32;20148;-74
2021/05/13 03:31:43;;;;;;;0.95;0.70;;;12.80;99.90;;;;;;4414830;32;20054;-73
2021/05/13 03:34:08;;;;;;;0.30;0.30;;;12.90;99.90;;;;;;4415308;32;20177;-74
2021/05/13 03:36:34;;;;;;;0.32;0.32;;;12.80;99.90;;;;;;4415169;32;20417;-74
2021/05/13 03:39:03;;;;;;;7.65;0.77;;;12.80;99.90;;;;;;4414885;32;20085;-74
2021/05/13 03:41:28;;;;;;;0.70;0.70;;;12.90;99.90;;;;;;4414932;32;20415;-73
2021/05/13 03:43:54;;;;;;;5.87;0.93;;;12.80;99.90;;;;;;4415105;32;20069;-74
2021/05/13 03:46:19;;;;;;;1.77;0.82;;;12.70;99.90;;;;;;4414595;32;20070;-74
2021/05/13 03:48:45;;;;;;;0.37;0.37;;;12.60;99.90;;;;;;4414629;32;20081;-74
2021/05/13 03:51:10;;;;;;;1.62;0.50;;;12.60;99.90;;;;;;4414647;32;20077;-74
2021/05/13 03:53:36;;;;;;;0.57;0.57;;;12.60;99.90;;;;;;4419654;32;20590;-74
2021/05/13 03:56:01;;;;;;;0.62;0.50;;;12.60;99.90;;;;;;4430073;32;20120;-74
2021/05/13 03:58:33;;;;;;;2.15;0.70;;;12.60;99.90;;;;;;4430924;32;20561;-74
2021/05/13 04:03:26;;;;;;;0.40;0.40;;;12.70;99.90;;;;;;4430381;32;20130;-74
2021/05/13 04:05:51;;;;;;;0.55;0.55;;;12.60;99.90;;;;;;4430711;32;20402;-74
2021/05/13 04:08:17;;;;;;;0.45;0.45;;;12.60;99.90;;;;;;4429772;32;20065;-74
2021/05/13 04:10:43;;;;;;;0.50;0.50;;;12.60;99.90;;;;;;4429538;32;20058;-74
2021/05/13 04:13:12;;;;;;;0.47;0.40;;;12.60;99.90;;;;;;4415726;32;20057;-74
2021/05/13 04:15:37;;;;;;;0.40;0.40;;;12.50;99.90;;;;;;4414476;32;20058;-73
2021/05/13 04:18:03;;;;;;;0.68;0.57;;;12.50;99.90;;;;;;4414092;32;20077;-74
2021/05/13 04:20:29;;;;;;;2.55;0.68;;;12.60;99.90;;;;;;4414306;32;20066;-74
2021/05/13 04:22:54;;;;;;;0.40;0.40;;;12.60;99.90;;;;;;4416027;32;20081;-74
2021/05/13 04:25:20;;;;;;;0.70;0.43;;;12.70;99.90;;;;;;4415665;32;20058;-74
2021/05/13 04:27:47;;;;;;;0.30;0.30;;;12.70;99.90;;;;;;4415386;32;20569;-74
2021/05/13 04:30:14;;;;;;;1.15;0.68;;;12.60;99.90;;;;;;4414190;32;20082;-74
2021/05/13 04:32:39;;;;;;;0.30;0.30;;;12.60;99.90;;;;;;4414175;32;20066;-74
2021/05/13 04:35:05;;;;;;;4.60;1.37;;;12.70;99.90;;;;;;4414760;32;20126;-73
2021/05/13 04:37:31;;;;;;;0.40;0.40;;;12.80;99.90;;;;;;4414358;32;20411;-73
2021/05/13 04:39:56;;;;;;;6.60;0.70;;;12.80;99.90;;;;;;4414668;32;20113;-73
2021/05/13 04:42:22;;;;;;;0.50;0.50;;;12.70;99.90;;;;;;4414090;32;20065;-73
2021/05/13 04:44:47;;;;;;;0.85;0.30;;;12.70;99.90;;;;;;4415172;32;20585;-73
2021/05/13 04:47:22;;;;;;;0.70;0.70;;;12.60;99.90;;;;;;4413907;32;20073;-72
2021/05/13 04:49:50;;;;;;;0.88;0.77;;;12.70;99.90;;;;;;4415434;32;20116;-73
2021/05/13 04:52:16;;;;;;;1.85;1.05;;;12.70;99.90;;;;;;4413750;32;20066;-73
2021/05/13 04:54:42;;;;;;;0.77;0.77;;;12.70;99.90;;;;;;4425742;32;20075;-73
2021/05/13 04:57:08;;;;;;;0.75;0.75;;;12.70;99.90;;;;;;4429701;32;20128;-73
2021/05/13 04:59:33;;;;;;;1.58;0.60;;;12.70;99.90;;;;;;4426295;32;20120;-73
2021/05/13 05:01:59;;;;;;;0.65;0.65;;;12.60;99.90;;;;;;4427075;32;20100;-73
2021/05/13 05:04:24;;;;;;;0.60;0.60;;;12.60;99.90;;;;;;4426871;32;20077;-73
2021/05/13 05:06:50;;;;;;;2.72;1.48;;;12.60;99.90;;;;;;4427530;32;20081;-73
2021/05/13 05:09:15;;;;;;;0.90;0.40;;;12.60;99.90;;;;;;4429623;32;20117;-73
2021/05/13 05:11:40;;;;;;;0.40;0.40;;;12.70;99.90;;;;;;4426195;32;20069;-73
2021/05/13 05:14:06;;;;;;;0.40;0.40;;;12.60;99.90;;;;;;4428790;32;20401;-73
2021/05/13 05:16:31;;;;;;;0.68;0.68;;;12.60;99.90;;;;;;4427467;32;20127;-73
2021/05/13 05:18:57;;;;;;;0.73;0.70;;;12.60;99.90;;;;;;4417595;32;20066;-73
2021/05/13 05:21:23;;;;;;;0.20;0.20;;;12.60;99.90;;;;;;4412595;32;20125;-73
2021/05/13 05:23:48;;;;;;;0.68;0.68;;;12.60;99.90;;;;;;4413774;32;20062;-72
2021/05/13 05:26:14;;;;;;;0.52;0.52;;;12.60;99.90;;;;;;4412974;32;20528;-73
2021/05/13 05:28:39;;;;;;;0.60;0.52;;;12.60;99.90;;;;;;4412788;32;20534;-73
2021/05/13 05:31:04;;;;;;;0.37;0.37;;;12.70;99.90;;;;;;4412146;32;20065;-73
2021/05/13 05:33:30;;;;;;;1.65;0.95;;;12.60;99.90;;;;;;4412991;32;20135;-72
2021/05/13 05:35:55;;;;;;;0.30;0.30;;;12.50;99.90;;;;;;4412401;32;20057;-71
2021/05/13 05:38:21;;;;;;;0.37;0.37;;;12.60;99.90;;;;;;4412366;32;20083;-72
2021/05/13 05:40:47;;;;;;;0.60;0.60;;;12.60;99.90;;;;;;4413254;32;20472;-71
2021/05/13 05:43:13;;;;;;;0.40;0.40;;;12.70;99.90;;;;;;4412602;32;20119;-71
2021/05/13 05:45:39;;;;;;;0.50;0.50;;;12.70;99.90;;;;;;4412494;32;20116;-71
2021/05/13 05:48:05;;;;;;;0.40;0.40;;;12.70;99.90;;;;;;4413421;32;20082;-71
2021/05/13 05:50:34;;;;;;;0.55;0.55;;;12.80;99.90;;;;;;4412854;32;20363;-72
2021/05/13 05:53:00;;;;;;;3.30;1.80;;;12.80;99.90;;;;;;4414049;32;20417;-72
2021/05/13 05:55:25;;;;;;;0.50;0.50;;;12.70;99.90;;;;;;4419504;32;20085;-72
2021/05/13 05:57:51;;;;;;;0.37;0.37;;;12.70;99.90;;;;;;4419401;32;20073;-72
2021/05/13 06:00:18;;;;;;;1.17;0.65;;;12.70;99.90;;;;;;4427520;32;20069;-72
2021/05/13 06:02:46;;;;;;;0.73;0.50;;;12.80;99.90;;;;;;4428840;32;20483;-72
2021/05/13 06:05:12;;;;;;;0.30;0.30;;;12.80;99.90;;;;;;4428014;32;20069;-72
2021/05/13 06:07:37;;;;;;;0.98;0.77;;;12.70;99.90;;;;;;4414366;32;20422;-72
2021/05/13 06:10:07;;;;;;;0.60;0.60;;;12.70;99.90;;;;;;4412248;32;20414;-72
2021/05/13 06:12:34;;;;;;;1.37;0.68;;;12.80;99.90;;;;;;4411736;32;20181;-73
2021/05/13 06:14:59;;;;;;;0.65;0.45;;;12.70;99.90;;;;;;4412239;32;20689;-72
2021/05/13 06:17:27;;;;;;;4.03;1.15;;;12.70;99.90;;;;;;4411678;32;20077;-72
2021/05/13 06:19:53;;;;;;;0.80;0.50;;;12.60;99.90;;;;;;4413811;32;20078;-72
2021/05/13 06:22:18;;;;;;;0.20;0.20;;;12.60;99.90;;;;;;4412909;32;20109;-72
2021/05/13 06:24:45;;;;;;;0.32;0.32;;;12.60;99.90;;;;;;4412622;32;20503;-72
2021/05/13 06:27:10;;;;;;;0.40;0.40;;;12.60;99.90;;;;;;4412525;32;20078;-72
2021/05/13 06:29:36;;;;;;;0.30;0.30;;;12.70;99.90;;;;;;4414527;32;20066;-72
2021/05/13 06:32:01;;;;;;;6.22;0.50;;;12.70;99.90;;;;;;4415642;32;20544;-72
2021/05/13 06:34:28;;;;;;;1.10;0.68;;;12.70;99.90;;;;;;4414734;32;20550;-72
2021/05/13 06:36:54;;;;;;;4.45;0.50;;;12.70;99.90;;;;;;4414094;32;20062;-72
2021/05/13 06:39:20;;;;;;;0.50;0.50;;;12.70;99.90;;;;;;4415374;32;20121;-72
2021/05/13 06:41:46;;;;;;;0.73;0.60;;;12.60;99.90;;;;;;4415109;32;20061;-72
2021/05/13 06:44:11;;;;;;;0.50;0.50;;;12.70;99.90;;;;;;4414618;32;20065;-72
2021/05/13 06:46:37;;;;;;;0.40;0.40;;;12.60;99.90;;;;;;4416069;32;20121;-72
2021/05/13 06:49:03;;;;;;;1.23;0.40;;;12.70;99.90;;;;;;4415045;32;20319;-72
2021/05/13 06:51:29;;;;;;;1.90;0.50;;;12.70;99.90;;;;;;4416989;32;20058;-72
2021/05/13 06:53:54;;;;;;;1.00;0.65;;;12.70;99.90;;;;;;4429323;32;20049;-72
2021/05/13 06:56:21;;;;;;;0.68;0.65;;;12.70;99.90;;;;;;4430569;32;20089;-72
2021/05/13 06:58:47;;;;;;;0.43;0.43;;;12.70;99.90;;;;;;4419574;32;20062;-72
2021/05/13 07:01:12;;;;;;;0.30;0.30;;;12.60;99.90;;;;;;4414633;32;20073;-72
2021/05/13 07:03:38;;;;;;;0.50;0.50;;;12.60;99.90;;;;;;4414076;32;20074;-72
2021/05/13 07:06:04;;;;;;;0.55;0.55;;;12.50;99.90;;;;;;4418021;32;20384;-72
2021/05/13 07:08:29;;;;;;;0.45;0.43;;;12.60;99.90;;;;;;4429550;32;20065;-72
2021/05/13 07:10:55;;;;;;;0.25;0.25;;;12.70;99.90;;;;;;4419110;32;20065;-72
2021/05/13 07:13:21;;;;;;;0.60;0.60;;;12.70;99.90;;;;;;4430073;32;20133;-72
2021/05/13 07:15:47;;;;;;;0.75;0.60;;;12.70;99.90;;;;;;4429825;32;20131;-72
2021/05/13 07:18:15;;;;;;;0.70;0.70;;;12.60;99.90;;;;;;4429170;32;20484;-72
2021/05/13 07:20:41;;;;;;;2.40;0.60;;;12.70;99.90;;;;;;4429597;32;20432;-72
2021/05/13 07:23:06;;;;;;;0.47;0.47;;;12.70;99.90;;;;;;4430574;32;20073;-72
2021/05/13 07:25:33;;;;;;;1.42;0.70;;;12.80;99.90;;;;;;4430147;32;20510;-72
2021/05/13 07:27:59;;;;;;;0.65;0.37;;;12.80;99.90;;;;;;4429354;32;20087;-72
2021/05/13 07:30:25;;;;;;;0.40;0.40;;;12.80;99.90;;;;;;4430363;32;20070;-72
2021/05/13 07:32:51;;;;;;;1.75;0.73;;;12.80;99.90;;;;;;4429843;32;20511;-72
2021/05/13 07:35:18;;;;;;;0.40;0.40;;;12.80;99.90;;;;;;4430424;32;20061;-72
2021/05/13 07:37:44;;;;;;;0.65;0.40;;;12.70;99.90;;;;;;4429794;32;20078;-72
2021/05/13 07:40:11;;;;;;;0.65;0.60;;;12.70;99.90;;;;;;4429464;32;20061;-72
2021/05/13 07:42:37;;;;;;;1.45;0.85;;;12.70;99.90;;;;;;4429392;32;20120;-72
2021/05/13 07:45:03;;;;;;;0.57;0.57;;;12.60;99.90;;;;;;4429314;32;20108;-72
2021/05/13 07:47:29;;;;;;;2.85;1.08;;;12.60;99.90;;;;;;4417813;32;20074;-73
2021/05/13 07:49:55;;;;;;;0.90;0.60;;;12.50;99.90;;;;;;4415174;32;20070;-73
2021/05/13 07:52:22;;;;;;;0.40;0.40;;;12.60;99.90;;;;;;4413741;32;20527;-73
2021/05/13 07:54:47;;;;;;;1.05;0.60;;;12.60;99.90;;;;;;4419295;32;20115;-73
2021/05/13 07:57:13;;;;;;;1.12;0.50;;;12.50;99.90;;;;;;4427059;32;20554;-74
2021/05/13 07:59:39;;;;;;;0.30;0.30;;;12.50;99.90;;;;;;4414791;32;20121;-73
2021/05/13 08:02:05;;;;;;;1.17;0.50;;;12.60;99.90;;;;;;4413622;32;20065;-73
2021/05/13 08:04:31;;;;;;;0.40;0.40;;;12.60;99.90;;;;;;4414462;32;20107;-73
2021/05/13 08:06:56;;;;;;;0.35;0.35;;;12.60;99.90;;;;;;4421032;32;20079;-73
2021/05/13 08:09:22;;;;;;;3.40;0.93;;;12.60;99.90;;;;;;4428869;32;20119;-73
2021/05/13 08:11:48;;;;;;;0.55;0.50;;;12.60;99.90;;;;;;4423931;32;20069;-73
2021/05/13 08:14:13;;;;;;;0.30;0.30;;;12.60;99.90;;;;;;4413327;32;20582;-73
2021/05/13 08:16:39;;;;;;;0.30;0.30;;;12.70;99.90;;;;;;4414004;32;20523;-73
2021/05/13 08:19:04;;;;;;;1.00;0.60;;;12.80;99.90;;;;;;4412932;32;20062;-73
2021/05/13 08:21:30;;;;;;;0.30;0.30;;;12.70;99.90;;;;;;4414776;32;20077;-73
2021/05/13 08:23:55;;;;;;;0.30;0.30;;;12.60;99.90;;;;;;4413413;32;20411;-73
2021/05/13 08:26:21;;;;;;;1.20;0.50;;;12.50;99.90;;;;;;4413718;32;20121;-73
2021/05/13 08:28:47;;;;;;;0.30;0.30;;;12.60;99.90;;;;;;4414054;32;20058;-73
2021/05/13 08:31:12;;;;;;;0.30;0.30;;;12.70;99.90;;;;;;4414038;32;20081;-73
2021/05/13 08:33:37;;;;;;;0.30;0.30;;;12.70;99.90;;;;;;4414177;32;20495;-73
2021/05/13 08:36:03;;;;;;;3.45;0.52;;;12.70;99.90;;;;;;4413068;32;20069;-73
2021/05/13 08:38:29;;;;;;;0.28;0.28;;;12.70;99.90;;;;;;4413271;32;20112;-73
2021/05/13 08:40:54;;;;;;;0.35;0.35;;;12.60;99.90;;;;;;4414604;32;20066;-73
2021/05/13 08:43:25;;;;;;;0.32;0.32;;;12.60;99.90;;;;;;4413809;32;20100;-73
2021/05/13 08:45:52;;;;;;;0.50;0.50;;;12.60;99.90;;;;;;4413190;32;20073;-73
2021/05/13 08:48:18;;;;;;;0.40;0.40;;;12.70;99.90;;;;;;4427735;32;20074;-73
2021/05/13 08:50:44;;;;;;;0.40;0.40;;;12.70;99.90;;;;;;4427305;32;20568;-73
2021/05/13 08:53:10;;;;;;;0.30;0.30;;;12.80;99.90;;;;;;4428618;32;20112;-73
2021/05/13 08:55:35;;;;;;;0.30;0.30;;;12.70;99.90;;;;;;4429708;32;20061;-73
2021/05/13 08:58:01;;;;;;;1.12;0.52;;;12.70;99.90;;;;;;4421281;32;20074;-73
2021/05/13 09:00:26;;;;;;;0.30;0.30;;;12.70;99.90;;;;;;4413798;32;20073;-73
2021/05/13 09:02:52;;;;;;;0.70;0.45;;;12.70;99.90;;;;;;4413554;32;20527;-73
2021/05/13 09:05:18;;;;;;;0.62;0.62;;;12.70;99.90;;;;;;4412935;32;20513;-73
2021/05/13 09:07:44;;;;;;;1.37;0.75;;;12.70;99.90;;;;;;4425609;32;20454;-73
2021/05/13 09:10:11;;;;;;;0.57;0.40;;;12.60;99.90;;;;;;4427967;32;20132;-74
2021/05/13 09:12:39;;;;;;;0.30;0.30;;;12.70;99.90;;;;;;4418555;32;20087;-73
2021/05/13 09:15:10;;;;;;;8.68;0.68;;;12.70;99.90;;;;;;4413198;32;20405;-73
2021/05/13 09:17:37;;;;;;;;;;;12.80;99.90;;;;;;4412471;32;20070;-73
2021/05/13 09:20:04;;;;;;;0.32;0.32;;;12.70;99.90;;;;;;4413644;32;20203;-73
2021/05/13 09:22:30;;;;;;;0.40;0.40;;;12.60;99.90;;;;;;4413477;32;20062;-73
2021/05/13 09:24:59;;;;;;;0.37;0.37;;;12.70;99.90;;;;;;4412902;32;20097;-73
2021/05/13 09:27:45;;;;;;;0.57;0.52;;;12.70;99.90;;;;;;4412800;32;20046;-73
2021/05/13 09:30:18;;;;;;;0.90;0.52;;;12.80;99.90;;;;;;4401264;32;20065;-73
2021/05/13 09:32:50;;;;;;;0.35;0.35;;;12.70;99.90;;;;;;4412394;32;20078;-73
2021/05/13 09:35:18;;;;;;;0.30;0.30;;;12.80;99.90;;;;;;4412521;32;20053;-73
2021/05/13 09:37:50;;;;;;;0.20;0.20;;;12.70;99.90;;;;;;4412328;32;20057;-73
2021/05/13 09:40:21;;;;;;;0.30;0.30;;;12.70;99.90;;;;;;4409921;32;76820;-73
2021/05/13 09:42:47;;;;;;;;;;;12.60;99.90;;;;;;4412979;32;20093;-73
2021/05/13 09:45:13;;;;;;;0.30;0.30;;;12.60;99.90;;;;;;4413005;32;19946;-73
2021/05/13 09:47:39;;;;;;;0.30;0.30;;;12.60;99.90;;;;;;4423652;32;20072;-73
2021/05/13 09:50:21;;;;;;;1.52;0.40;;;12.70;99.90;;;;;;4427436;32;20086;-73
2021/05/13 09:52:51;;;;;;;0.40;0.40;;;12.70;99.90;;;;;;4427829;32;20069;-73
2021/05/13 09:55:21;;;;;;;0.30;0.30;;;12.80;99.90;;;;;;4428098;32;20054;-73
2021/05/13 09:57:51;;;;;;;0.30;0.30;;;12.80;99.90;;;;;;4429037;32;20487;-73
2021/05/13 10:00:38;;;;;;;0.60;0.60;;;12.80;99.90;;;;;;4426930;32;20082;-73
2021/05/13 10:03:10;;;;;;;0.43;0.43;;;12.80;99.90;;;;;;4418226;32;20132;-73
2021/05/13 10:05:37;;;;;;;0.20;0.20;;;12.80;99.90;;;;;;4432310;32;20469;-73
2021/05/13 10:08:03;;;;;;;0.30;0.30;;;12.70;99.90;;;;;;4415639;32;20514;-73
2021/05/13 10:10:29;;;;;;;0.20;0.20;;;12.70;99.90;;;;;;4414661;32;20066;-73
2021/05/13 10:12:57;;;;;;;0.55;0.55;;;12.80;99.90;;;;;;4416599;32;20074;-73
2021/05/13 10:15:25;;;;;;;0.20;0.20;;;12.80;99.90;;;;;;4416048;32;20069;-73
2021/05/13 10:17:55;;;;;;;0.45;0.45;;;12.80;99.90;;;;;;4414101;32;20086;-73
2021/05/13 10:20:22;;;;;;;0.20;0.20;;;12.80;99.90;;;;;;4414629;32;20193;-73
2021/05/13 10:22:48;;;;;;;1.80;0.52;;;12.80;99.90;;;;;;4415089;32;20768;-73
2021/05/13 10:25:26;;;;;;;0.30;0.30;;;12.70;99.90;;;;;;4414914;32;20462;-73
2021/05/13 10:27:54;;;;;;;0.30;0.30;;;12.80;99.90;;;;;;4414943;32;20106;-73
2021/05/13 10:30:23;;;;;;;0.30;0.30;;;12.80;99.90;;;;;;4414808;32;20496;-73
2021/05/13 10:33:15;;;;;;;0.40;0.40;;;12.80;99.90;;;;;;4416056;32;20129;-73
2021/05/13 10:36:00;;;;;;;0.30;0.30;;;12.80;99.90;;;;;;4404456;32;20531;-73
2021/05/13 10:38:52;;;;;;;0.30;0.30;;;12.90;99.90;;;;;;4415705;32;20085;-73
2021/05/13 10:41:35;;;;;;;0.30;0.30;;;12.90;99.90;;;;;;4414749;32;20453;-73
2021/05/13 10:44:19;;;;;;;0.20;0.20;;;12.80;99.90;;;;;;4414178;32;20069;-73
2021/05/13 10:46:54;;;;;;;0.22;0.22;;;12.80;99.90;;;;;;4420670;32;20073;-73
2021/05/13 10:49:23;;;;;;;0.30;0.30;;;12.70;99.90;;;;;;4429329;32;20439;-73
2021/05/13 10:51:50;;;;;;;0.20;0.20;;;12.70;99.90;;;;;;4429776;32;20061;-73
2021/05/13 10:54:34;;;;;;;0.30;0.30;;;12.70;99.90;;;;;;4429161;32;20735;-73
2021/05/13 10:57:18;;;;;;;0.25;0.25;;;12.70;99.90;;;;;;4416830;32;20073;-73
2021/05/13 11:00:06;;;;;;;0.30;0.30;;;12.60;99.90;;;;;;4429193;32;20070;-73
2021/05/13 11:02:38;;;;;;;0.20;0.20;;;12.60;99.90;;;;;;4417571;32;20081;-73
2021/05/13 11:05:28;;;;;;;0.28;0.28;;;12.50;99.90;;;;;;4429529;32;20069;-73
2021/05/13 11:07:54;;;;;;;0.40;0.40;;;12.50;99.90;;;;;;4403793;32;20090;-73
2021/05/13 11:10:20;;;;;;;0.30;0.30;;;12.50;99.90;;;;;;4418561;32;20522;-72
2021/05/13 11:12:47;;;;;;;0.20;0.20;;;12.50;99.90;;;;;;4419144;32;20551;-72
2021/05/13 11:15:19;;;;;;;0.30;0.30;;;12.60;99.90;;;;;;4413071;32;20121;-72
2021/05/13 11:20:20;;;;;;;0.30;0.30;;;12.60;99.90;;;;;;4414108;32;20125;-72
2021/05/13 11:22:56;;;;;;;0.30;0.30;;;12.60;99.90;;;;;;4414106;32;20090;-72
2021/05/13 11:25:23;;;;;;;0.30;0.30;;;12.50;99.90;;;;;;4414195;32;20061;-73
2021/05/13 11:27:49;;;;;;;0.30;0.30;;;12.50;99.90;;;;;;4414381;32;20061;-73
2021/05/13 11:30:15;;;;;;;0.45;0.45;;;12.50;99.90;;;;;;4414208;32;20071;-73
2021/05/13 11:32:41;;;;;;;0.20;0.20;;;12.50;99.90;;;;;;4413974;32;20104;-73
2021/05/13 11:35:08;;;;;;;0.30;0.30;;;12.50;99.90;;;;;;4414579;32;20166;-73
2021/05/13 11:37:38;;;;;;;0.30;0.30;;;12.50;99.90;;;;;;4413554;32;20486;-73
2021/05/13 11:40:26;;;;;;;0.20;0.20;;;12.40;99.90;;;;;;4414478;32;20124;-73
2021/05/13 11:43:12;;;;;;;0.20;0.20;;;12.40;99.90;;;;;;4403512;32;20069;-73
2021/05/13 11:45:38;;;;;;;0.50;0.50;;;12.40;99.90;;;;;;4402801;32;20531;-73
2021/05/13 11:48:18;;;;;;;0.20;0.20;;;12.40;99.90;;;;;;4427863;32;20066;-73
2021/05/13 11:50:44;;;;;;;0.30;0.30;;;12.40;99.90;;;;;;4429004;32;20090;-73
2021/05/13 11:53:11;;;;;;;0.30;0.30;;;12.30;99.90;;;;;;4430315;32;20073;-73
2021/05/13 11:55:40;;;;;;;0.65;0.50;;;12.40;99.90;;;;;;4428004;32;20061;-73
2021/05/13 11:58:08;;;;;;;2.20;0.30;;;12.50;99.90;;;;;;4420495;32;20078;-73
2021/05/13 12:00:33;;;;;;;0.30;0.30;;;12.50;99.90;;;;;;4414154;32;20138;-73
2021/05/13 12:03:17;;;;;;;0.32;0.30;;;12.60;99.90;;;;;;4413737;32;20082;-73
2021/05/13 12:05:48;;;;;;;0.30;0.30;;;12.70;99.90;;;;;;4414652;32;20121;-73
2021/05/13 12:08:15;;;;;;;0.30;0.30;;;12.70;99.90;;;;;;4428712;32;20061;-73
2021/05/13 12:10:41;;;;;;;0.30;0.30;;;12.70;99.90;;;;;;4429017;32;20342;-73
2021/05/13 12:13:06;;;;;;;0.20;0.20;;;12.70;99.90;;;;;;4414832;32;20448;-72
2021/05/13 12:15:32;;;;;;;0.30;0.30;;;12.70;99.90;;;;;;4413940;32;20091;-73
2021/05/13 12:17:57;;;;;;;0.50;0.50;;;12.60;99.90;;;;;;4413884;32;20094;-72
2021/05/13 12:20:23;;;;;;;0.25;0.25;;;12.60;99.90;;;;;;4414215;32;20582;-73
2021/05/13 12:22:49;;;;;;;0.30;0.30;;;12.70;99.90;;;;;;4413222;32;20081;-73
2021/05/13 12:25:14;;;;;;;0.30;0.30;;;12.70;99.90;;;;;;4413741;32;20516;-73
2021/05/13 12:27:43;;;;;;;0.30;0.30;;;12.70;99.90;;;;;;4413345;32;20133;-73
2021/05/13 12:30:11;;;;;;;0.20;0.20;;;12.70;99.90;;;;;;4426277;32;20116;-72
2021/05/13 12:32:36;;;;;;;0.30;0.30;;;12.80;99.90;;;;;;4428260;32;20128;-72
2021/05/13 12:35:21;;;;;;;0.30;0.30;;;12.80;99.90;;;;;;4429020;32;20121;-72
2021/05/13 12:37:47;;;;;;;0.30;0.30;;;12.70;99.90;;;;;;4428061;32;20344;-73
2021/05/13 12:40:14;;;;;;;0.20;0.20;;;12.70;99.90;;;;;;4428425;32;20086;-73
2021/05/13 12:42:40;;;;;;;0.20;0.20;;;12.70;99.90;;;;;;4428907;32;20406;-73
2021/05/13 12:45:22;;;;;;;0.43;0.40;;;12.70;99.90;;;;;;4428603;32;20134;-73
2021/05/13 12:48:01;;;;;;;0.40;0.40;;;12.70;99.90;;;;;;4427865;32;20066;-72
2021/05/13 12:50:27;;;;;;;1.27;0.37;;;12.70;99.90;;;;;;4429621;32;20065;-72
2021/05/13 12:53:10;;;;;;;0.30;0.30;;;12.70;99.90;;;;;;4429066;32;20090;-72
2021/05/13 12:55:37;;;;;;;0.30;0.30;;;12.70;99.90;;;;;;4417565;32;20086;-73
2021/05/13 12:58:09;;;;;;;0.30;0.30;;;12.70;99.90;;;;;;4421148;32;20064;-73
2021/05/13 13:00:35;;;;;;;0.22;0.22;;;12.70;99.90;;;;;;4427783;32;20064;-74